sensor_id;sensor_type;location;lat;lon;timestamp;P1;durP1;ratioP1;P2;durP2;ratioP2
11763;SDS011;5939;56.522;14.950;2022-12-05T00:03:59;9.40;;;7.00;;
11763;SDS011;5939;56.522;14.950;2022-12-05T00:06:26;9.83;;;7.20;;
11763;SDS011;5939;56.522;14.950;2022-12-05T00:08:53;10.50;;;7.00;;
11763;SDS011;5939;56.522;14.950;2022-12-05T00:11:20;7.77;;;6.03;;
11763;SDS011;5939;56.522;14.950;2022-12-05T00:13:51;8.77;;;6.93;;
11763;SDS011;5939;56.522;14.950;2022-12-05T00:16:19;8.40;;;6.40;;
11763;SDS011;5939;56.522;14.950;2022-12-05T00:18:46;8.17;;;6.40;;
11763;SDS011;5939;56.522;14.950;2022-12-05T00:21:14;9.13;;;6.43;;
11763;SDS011;5939;56.522;14.950;2022-12-05T00:23:44;8.93;;;6.40;;
11763;SDS011;5939;56.522;14.950;2022-12-05T00:26:10;7.50;;;5.73;;
11763;SDS011;5939;56.522;14.950;2022-12-05T00:28:36;8.30;;;6.30;;
11763;SDS011;5939;56.522;14.950;2022-12-05T00:31:03;7.47;;;5.93;;
11763;SDS011;5939;56.522;14.950;2022-12-05T00:33:30;7.80;;;5.83;;
11763;SDS011;5939;56.522;14.950;2022-12-05T00:36:03;7.23;;;5.63;;
11763;SDS011;5939;56.522;14.950;2022-12-05T00:38:31;6.83;;;5.70;;
11763;SDS011;5939;56.522;14.950;2022-12-05T00:41:01;7.37;;;6.00;;
11763;SDS011;5939;56.522;14.950;2022-12-05T00:43:30;6.67;;;5.00;;
11763;SDS011;5939;56.522;14.950;2022-12-05T00:45:59;6.60;;;5.10;;
11763;SDS011;5939;56.522;14.950;2022-12-05T00:48:29;8.10;;;5.20;;
11763;SDS011;5939;56.522;14.950;2022-12-05T00:51:03;7.27;;;5.57;;
11763;SDS011;5939;56.522;14.950;2022-12-05T00:53:49;6.47;;;5.30;;
11763;SDS011;5939;56.522;14.950;2022-12-05T00:56:24;6.10;;;4.60;;
11763;SDS011;5939;56.522;14.950;2022-12-05T00:58:52;6.57;;;5.07;;
11763;SDS011;5939;56.522;14.950;2022-12-05T01:01:26;5.13;;;4.50;;
11763;SDS011;5939;56.522;14.950;2022-12-05T01:04:05;6.10;;;4.73;;
11763;SDS011;5939;56.522;14.950;2022-12-05T01:06:35;4.97;;;4.17;;
11763;SDS011;5939;56.522;14.950;2022-12-05T01:09:02;5.67;;;4.70;;
11763;SDS011;5939;56.522;14.950;2022-12-05T01:11:29;5.30;;;4.20;;
11763;SDS011;5939;56.522;14.950;2022-12-05T01:13:55;4.93;;;4.20;;
11763;SDS011;5939;56.522;14.950;2022-12-05T01:18:51;5.77;;;4.60;;
11763;SDS011;5939;56.522;14.950;2022-12-05T01:21:18;5.03;;;4.17;;
11763;SDS011;5939;56.522;14.950;2022-12-05T01:23:44;5.20;;;4.03;;
11763;SDS011;5939;56.522;14.950;2022-12-05T01:26:11;4.80;;;3.87;;
11763;SDS011;5939;56.522;14.950;2022-12-05T01:28:38;4.93;;;4.10;;
11763;SDS011;5939;56.522;14.950;2022-12-05T01:31:06;5.73;;;4.00;;
11763;SDS011;5939;56.522;14.950;2022-12-05T01:33:34;4.53;;;3.80;;
11763;SDS011;5939;56.522;14.950;2022-12-05T01:36:00;4.67;;;4.23;;
11763;SDS011;5939;56.522;14.950;2022-12-05T01:38:27;4.07;;;3.37;;
11763;SDS011;5939;56.522;14.950;2022-12-05T01:41:03;4.57;;;3.70;;
11763;SDS011;5939;56.522;14.950;2022-12-05T01:43:29;4.90;;;3.97;;
11763;SDS011;5939;56.522;14.950;2022-12-05T01:45:56;4.20;;;3.60;;
11763;SDS011;5939;56.522;14.950;2022-12-05T01:48:24;4.40;;;3.37;;
11763;SDS011;5939;56.522;14.950;2022-12-05T01:50:52;4.13;;;3.37;;
11763;SDS011;5939;56.522;14.950;2022-12-05T01:53:18;4.20;;;3.70;;
11763;SDS011;5939;56.522;14.950;2022-12-05T01:55:45;4.00;;;3.23;;
11763;SDS011;5939;56.522;14.950;2022-12-05T01:58:12;4.50;;;3.70;;
11763;SDS011;5939;56.522;14.950;2022-12-05T02:00:39;4.20;;;3.43;;
11763;SDS011;5939;56.522;14.950;2022-12-05T02:03:08;4.17;;;3.53;;
11763;SDS011;5939;56.522;14.950;2022-12-05T02:05:38;4.13;;;3.13;;
11763;SDS011;5939;56.522;14.950;2022-12-05T02:08:05;3.93;;;3.20;;
11763;SDS011;5939;56.522;14.950;2022-12-05T02:10:42;3.93;;;3.30;;
11763;SDS011;5939;56.522;14.950;2022-12-05T02:32:13;3.60;;;2.80;;
11763;SDS011;5939;56.522;14.950;2022-12-05T02:34:59;3.70;;;2.93;;
11763;SDS011;5939;56.522;14.950;2022-12-05T02:37:42;3.40;;;2.90;;
11763;SDS011;5939;56.522;14.950;2022-12-05T02:40:20;3.30;;;2.70;;
11763;SDS011;5939;56.522;14.950;2022-12-05T02:42:57;3.47;;;2.83;;
11763;SDS011;5939;56.522;14.950;2022-12-05T02:45:26;3.00;;;2.70;;
11763;SDS011;5939;56.522;14.950;2022-12-05T02:47:54;3.50;;;2.80;;
11763;SDS011;5939;56.522;14.950;2022-12-05T02:50:24;3.47;;;2.67;;
11763;SDS011;5939;56.522;14.950;2022-12-05T02:52:55;3.03;;;2.73;;
11763;SDS011;5939;56.522;14.950;2022-12-05T02:55:25;3.07;;;2.70;;
11763;SDS011;5939;56.522;14.950;2022-12-05T02:57:54;3.40;;;2.40;;
11763;SDS011;5939;56.522;14.950;2022-12-05T03:00:24;2.53;;;2.33;;
11763;SDS011;5939;56.522;14.950;2022-12-05T03:02:50;3.00;;;2.63;;
11763;SDS011;5939;56.522;14.950;2022-12-05T03:08:03;3.23;;;2.30;;
11763;SDS011;5939;56.522;14.950;2022-12-05T03:10:34;2.60;;;2.40;;
11763;SDS011;5939;56.522;14.950;2022-12-05T03:13:07;3.00;;;2.60;;
11763;SDS011;5939;56.522;14.950;2022-12-05T03:15:40;4.17;;;2.90;;
11763;SDS011;5939;56.522;14.950;2022-12-05T03:18:11;2.57;;;2.20;;
11763;SDS011;5939;56.522;14.950;2022-12-05T03:20:43;2.90;;;2.20;;
11763;SDS011;5939;56.522;14.950;2022-12-05T03:23:20;2.53;;;2.33;;
11763;SDS011;5939;56.522;14.950;2022-12-05T03:28:26;2.63;;;2.30;;
11763;SDS011;5939;56.522;14.950;2022-12-05T03:31:02;2.63;;;2.10;;
11763;SDS011;5939;56.522;14.950;2022-12-05T03:33:36;2.30;;;2.10;;
11763;SDS011;5939;56.522;14.950;2022-12-05T03:36:22;2.47;;;1.83;;
11763;SDS011;5939;56.522;14.950;2022-12-05T03:39:00;2.20;;;2.00;;
11763;SDS011;5939;56.522;14.950;2022-12-05T03:47:29;2.70;;;2.20;;
11763;SDS011;5939;56.522;14.950;2022-12-05T03:50:04;2.40;;;1.90;;
11763;SDS011;5939;56.522;14.950;2022-12-05T03:52:44;2.10;;;1.90;;
11763;SDS011;5939;56.522;14.950;2022-12-05T03:55:14;2.27;;;1.97;;
11763;SDS011;5939;56.522;14.950;2022-12-05T03:57:57;2.43;;;2.10;;
11763;SDS011;5939;56.522;14.950;2022-12-05T04:00:26;2.10;;;1.93;;
11763;SDS011;5939;56.522;14.950;2022-12-05T04:05:46;2.17;;;1.97;;
11763;SDS011;5939;56.522;14.950;2022-12-05T04:08:30;2.13;;;1.93;;
11763;SDS011;5939;56.522;14.950;2022-12-05T04:11:02;2.27;;;1.90;;
11763;SDS011;5939;56.522;14.950;2022-12-05T04:16:02;2.70;;;1.80;;
11763;SDS011;5939;56.522;14.950;2022-12-05T04:19:08;1.77;;;1.67;;
11763;SDS011;5939;56.522;14.950;2022-12-05T04:21:51;2.43;;;1.80;;
11763;SDS011;5939;56.522;14.950;2022-12-05T04:24:19;2.17;;;1.60;;
11763;SDS011;5939;56.522;14.950;2022-12-05T04:32:29;1.93;;;1.57;;
11763;SDS011;5939;56.522;14.950;2022-12-05T04:35:05;2.53;;;1.83;;
11763;SDS011;5939;56.522;14.950;2022-12-05T04:37:35;1.83;;;1.60;;
11763;SDS011;5939;56.522;14.950;2022-12-05T04:40:08;1.87;;;1.50;;
11763;SDS011;5939;56.522;14.950;2022-12-05T04:42:43;1.57;;;1.27;;
11763;SDS011;5939;56.522;14.950;2022-12-05T04:45:12;1.60;;;1.50;;
11763;SDS011;5939;56.522;14.950;2022-12-05T04:47:42;1.83;;;1.60;;
11763;SDS011;5939;56.522;14.950;2022-12-05T04:50:12;2.17;;;1.70;;
11763;SDS011;5939;56.522;14.950;2022-12-05T04:52:39;1.60;;;1.20;;
11763;SDS011;5939;56.522;14.950;2022-12-05T04:55:13;2.00;;;1.50;;
11763;SDS011;5939;56.522;14.950;2022-12-05T04:57:44;1.80;;;1.43;;
11763;SDS011;5939;56.522;14.950;2022-12-05T05:00:17;1.20;;;1.10;;
11763;SDS011;5939;56.522;14.950;2022-12-05T05:05:39;1.60;;;1.27;;
11763;SDS011;5939;56.522;14.950;2022-12-05T05:08:16;1.50;;;1.30;;
11763;SDS011;5939;56.522;14.950;2022-12-05T05:10:51;1.40;;;1.30;;
11763;SDS011;5939;56.522;14.950;2022-12-05T05:13:22;1.60;;;1.50;;
11763;SDS011;5939;56.522;14.950;2022-12-05T05:15:48;1.20;;;1.10;;
11763;SDS011;5939;56.522;14.950;2022-12-05T05:18:13;1.27;;;1.10;;
11763;SDS011;5939;56.522;14.950;2022-12-05T05:20:39;1.87;;;1.23;;
11763;SDS011;5939;56.522;14.950;2022-12-05T05:23:04;2.67;;;1.30;;
11763;SDS011;5939;56.522;14.950;2022-12-05T05:25:30;1.30;;;1.20;;
11763;SDS011;5939;56.522;14.950;2022-12-05T05:27:56;1.67;;;1.27;;
11763;SDS011;5939;56.522;14.950;2022-12-05T05:30:22;1.20;;;1.00;;
11763;SDS011;5939;56.522;14.950;2022-12-05T05:32:49;1.40;;;1.10;;
11763;SDS011;5939;56.522;14.950;2022-12-05T05:35:15;1.20;;;1.03;;
11763;SDS011;5939;56.522;14.950;2022-12-05T05:37:41;1.67;;;1.33;;
11763;SDS011;5939;56.522;14.950;2022-12-05T05:40:08;1.20;;;1.10;;
11763;SDS011;5939;56.522;14.950;2022-12-05T05:42:46;1.47;;;1.37;;
11763;SDS011;5939;56.522;14.950;2022-12-05T05:45:13;2.37;;;1.10;;
11763;SDS011;5939;56.522;14.950;2022-12-05T05:47:40;1.80;;;1.23;;
11763;SDS011;5939;56.522;14.950;2022-12-05T05:50:06;1.40;;;1.10;;
11763;SDS011;5939;56.522;14.950;2022-12-05T05:52:32;1.20;;;1.00;;
11763;SDS011;5939;56.522;14.950;2022-12-05T05:54:59;1.30;;;1.20;;
11763;SDS011;5939;56.522;14.950;2022-12-05T05:57:25;1.30;;;1.10;;
11763;SDS011;5939;56.522;14.950;2022-12-05T05:59:51;0.97;;;0.97;;
11763;SDS011;5939;56.522;14.950;2022-12-05T06:02:16;1.20;;;1.10;;
11763;SDS011;5939;56.522;14.950;2022-12-05T06:04:42;1.37;;;1.10;;
11763;SDS011;5939;56.522;14.950;2022-12-05T06:07:07;1.03;;;0.93;;
11763;SDS011;5939;56.522;14.950;2022-12-05T06:09:33;1.10;;;1.00;;
11763;SDS011;5939;56.522;14.950;2022-12-05T06:11:59;1.10;;;1.00;;
11763;SDS011;5939;56.522;14.950;2022-12-05T06:14:24;1.40;;;1.10;;
11763;SDS011;5939;56.522;14.950;2022-12-05T06:16:50;1.13;;;1.03;;
11763;SDS011;5939;56.522;14.950;2022-12-05T06:19:15;0.90;;;0.90;;
11763;SDS011;5939;56.522;14.950;2022-12-05T06:21:41;2.20;;;1.17;;
11763;SDS011;5939;56.522;14.950;2022-12-05T06:24:07;0.97;;;0.87;;
11763;SDS011;5939;56.522;14.950;2022-12-05T06:26:33;1.20;;;1.10;;
11763;SDS011;5939;56.522;14.950;2022-12-05T06:28:58;1.43;;;1.00;;
11763;SDS011;5939;56.522;14.950;2022-12-05T06:31:24;0.80;;;0.80;;
11763;SDS011;5939;56.522;14.950;2022-12-05T06:33:58;1.90;;;0.90;;
11763;SDS011;5939;56.522;14.950;2022-12-05T06:36:25;1.43;;;1.00;;
11763;SDS011;5939;56.522;14.950;2022-12-05T06:38:52;1.13;;;0.90;;
11763;SDS011;5939;56.522;14.950;2022-12-05T06:41:18;0.80;;;0.80;;
11763;SDS011;5939;56.522;14.950;2022-12-05T06:43:45;0.90;;;0.80;;
11763;SDS011;5939;56.522;14.950;2022-12-05T06:46:12;1.03;;;1.03;;
11763;SDS011;5939;56.522;14.950;2022-12-05T06:48:38;1.00;;;0.80;;
11763;SDS011;5939;56.522;14.950;2022-12-05T06:51:04;1.10;;;1.00;;
11763;SDS011;5939;56.522;14.950;2022-12-05T06:53:33;1.20;;;1.00;;
11763;SDS011;5939;56.522;14.950;2022-12-05T06:55:59;1.37;;;0.87;;
11763;SDS011;5939;56.522;14.950;2022-12-05T06:58:27;1.00;;;0.90;;
11763;SDS011;5939;56.522;14.950;2022-12-05T07:00:53;1.03;;;0.80;;
11763;SDS011;5939;56.522;14.950;2022-12-05T07:03:38;0.60;;;0.60;;
11763;SDS011;5939;56.522;14.950;2022-12-05T07:06:05;0.73;;;0.70;;
11763;SDS011;5939;56.522;14.950;2022-12-05T07:08:32;0.70;;;0.70;;
11763;SDS011;5939;56.522;14.950;2022-12-05T07:10:58;1.10;;;0.90;;
11763;SDS011;5939;56.522;14.950;2022-12-05T07:13:24;0.70;;;0.70;;
11763;SDS011;5939;56.522;14.950;2022-12-05T07:15:50;0.83;;;0.70;;
11763;SDS011;5939;56.522;14.950;2022-12-05T07:18:15;0.70;;;0.70;;
11763;SDS011;5939;56.522;14.950;2022-12-05T07:20:42;0.70;;;0.70;;
11763;SDS011;5939;56.522;14.950;2022-12-05T07:23:09;0.80;;;0.80;;
11763;SDS011;5939;56.522;14.950;2022-12-05T07:25:41;0.80;;;0.80;;
11763;SDS011;5939;56.522;14.950;2022-12-05T07:28:07;0.60;;;0.60;;
11763;SDS011;5939;56.522;14.950;2022-12-05T07:30:33;0.80;;;0.80;;
11763;SDS011;5939;56.522;14.950;2022-12-05T07:32:59;1.10;;;1.00;;
11763;SDS011;5939;56.522;14.950;2022-12-05T07:35:25;0.70;;;0.70;;
11763;SDS011;5939;56.522;14.950;2022-12-05T07:37:50;0.60;;;0.60;;
11763;SDS011;5939;56.522;14.950;2022-12-05T07:40:16;0.70;;;0.70;;
11763;SDS011;5939;56.522;14.950;2022-12-05T07:42:42;0.93;;;0.83;;
11763;SDS011;5939;56.522;14.950;2022-12-05T07:45:07;0.60;;;0.60;;
11763;SDS011;5939;56.522;14.950;2022-12-05T07:47:33;0.70;;;0.70;;
11763;SDS011;5939;56.522;14.950;2022-12-05T07:49:59;0.70;;;0.70;;
11763;SDS011;5939;56.522;14.950;2022-12-05T07:52:25;0.83;;;0.77;;
11763;SDS011;5939;56.522;14.950;2022-12-05T07:54:52;1.87;;;0.87;;
11763;SDS011;5939;56.522;14.950;2022-12-05T07:57:17;0.70;;;0.70;;
11763;SDS011;5939;56.522;14.950;2022-12-05T07:59:43;0.70;;;0.70;;
11763;SDS011;5939;56.522;14.950;2022-12-05T08:02:09;0.63;;;0.63;;
11763;SDS011;5939;56.522;14.950;2022-12-05T08:04:35;0.70;;;0.70;;
11763;SDS011;5939;56.522;14.950;2022-12-05T08:07:00;0.70;;;0.70;;
11763;SDS011;5939;56.522;14.950;2022-12-05T08:09:26;0.70;;;0.70;;
11763;SDS011;5939;56.522;14.950;2022-12-05T08:11:52;0.60;;;0.60;;
11763;SDS011;5939;56.522;14.950;2022-12-05T08:14:17;0.97;;;0.70;;
11763;SDS011;5939;56.522;14.950;2022-12-05T08:16:43;0.60;;;0.60;;
11763;SDS011;5939;56.522;14.950;2022-12-05T08:19:08;0.57;;;0.53;;
11763;SDS011;5939;56.522;14.950;2022-12-05T08:21:36;0.60;;;0.60;;
11763;SDS011;5939;56.522;14.950;2022-12-05T08:24:03;1.37;;;0.70;;
11763;SDS011;5939;56.522;14.950;2022-12-05T08:26:30;0.70;;;0.70;;
11763;SDS011;5939;56.522;14.950;2022-12-05T08:29:00;0.70;;;0.70;;
11763;SDS011;5939;56.522;14.950;2022-12-05T08:31:35;0.80;;;0.80;;
11763;SDS011;5939;56.522;14.950;2022-12-05T08:34:11;1.10;;;0.67;;
11763;SDS011;5939;56.522;14.950;2022-12-05T08:36:37;0.77;;;0.70;;
11763;SDS011;5939;56.522;14.950;2022-12-05T08:39:04;0.77;;;0.70;;
11763;SDS011;5939;56.522;14.950;2022-12-05T08:41:32;0.50;;;0.50;;
11763;SDS011;5939;56.522;14.950;2022-12-05T08:43:59;1.00;;;0.80;;
11763;SDS011;5939;56.522;14.950;2022-12-05T08:46:30;0.70;;;0.70;;
11763;SDS011;5939;56.522;14.950;2022-12-05T08:48:57;0.80;;;0.70;;
11763;SDS011;5939;56.522;14.950;2022-12-05T08:51:22;1.33;;;0.70;;
11763;SDS011;5939;56.522;14.950;2022-12-05T08:53:48;0.80;;;0.80;;
11763;SDS011;5939;56.522;14.950;2022-12-05T08:56:14;1.27;;;0.90;;
11763;SDS011;5939;56.522;14.950;2022-12-05T08:58:40;0.80;;;0.80;;
11763;SDS011;5939;56.522;14.950;2022-12-05T09:01:07;0.60;;;0.60;;
11763;SDS011;5939;56.522;14.950;2022-12-05T09:03:34;0.90;;;0.70;;
11763;SDS011;5939;56.522;14.950;2022-12-05T09:06:19;0.60;;;0.60;;
11763;SDS011;5939;56.522;14.950;2022-12-05T09:08:46;0.90;;;0.70;;
11763;SDS011;5939;56.522;14.950;2022-12-05T09:11:14;0.60;;;0.60;;
11763;SDS011;5939;56.522;14.950;2022-12-05T09:13:42;0.77;;;0.77;;
11763;SDS011;5939;56.522;14.950;2022-12-05T09:16:09;1.50;;;0.80;;
11763;SDS011;5939;56.522;14.950;2022-12-05T09:18:36;0.70;;;0.70;;
11763;SDS011;5939;56.522;14.950;2022-12-05T09:21:06;0.60;;;0.60;;
11763;SDS011;5939;56.522;14.950;2022-12-05T09:23:40;0.77;;;0.77;;
11763;SDS011;5939;56.522;14.950;2022-12-05T09:26:08;0.90;;;0.80;;
11763;SDS011;5939;56.522;14.950;2022-12-05T09:28:36;1.33;;;0.77;;
11763;SDS011;5939;56.522;14.950;2022-12-05T09:31:03;0.80;;;0.70;;
11763;SDS011;5939;56.522;14.950;2022-12-05T09:33:30;1.00;;;0.90;;
11763;SDS011;5939;56.522;14.950;2022-12-05T09:35:58;0.90;;;0.90;;
11763;SDS011;5939;56.522;14.950;2022-12-05T09:38:26;1.10;;;0.90;;
11763;SDS011;5939;56.522;14.950;2022-12-05T09:40:59;1.13;;;1.00;;
11763;SDS011;5939;56.522;14.950;2022-12-05T09:43:34;0.80;;;0.80;;
11763;SDS011;5939;56.522;14.950;2022-12-05T09:46:48;0.87;;;0.87;;
11763;SDS011;5939;56.522;14.950;2022-12-05T09:49:10;0.87;;;0.87;;
11763;SDS011;5939;56.522;14.950;2022-12-05T09:51:36;1.00;;;0.90;;
11763;SDS011;5939;56.522;14.950;2022-12-05T09:54:07;1.10;;;1.00;;
11763;SDS011;5939;56.522;14.950;2022-12-05T09:56:35;0.80;;;0.80;;
11763;SDS011;5939;56.522;14.950;2022-12-05T09:59:02;1.20;;;1.03;;
11763;SDS011;5939;56.522;14.950;2022-12-05T10:12:15;1.70;;;1.10;;
11763;SDS011;5939;56.522;14.950;2022-12-05T10:15:00;1.10;;;1.00;;
11763;SDS011;5939;56.522;14.950;2022-12-05T10:17:33;1.03;;;0.93;;
11763;SDS011;5939;56.522;14.950;2022-12-05T10:20:03;1.20;;;1.00;;
11763;SDS011;5939;56.522;14.950;2022-12-05T10:22:41;1.27;;;1.17;;
11763;SDS011;5939;56.522;14.950;2022-12-05T10:25:11;1.27;;;1.07;;
11763;SDS011;5939;56.522;14.950;2022-12-05T10:27:42;1.50;;;1.40;;
11763;SDS011;5939;56.522;14.950;2022-12-05T10:30:23;1.30;;;1.20;;
11763;SDS011;5939;56.522;14.950;2022-12-05T10:32:55;1.23;;;1.13;;
11763;SDS011;5939;56.522;14.950;2022-12-05T10:35:33;1.33;;;1.03;;
11763;SDS011;5939;56.522;14.950;2022-12-05T10:38:05;1.67;;;1.27;;
11763;SDS011;5939;56.522;14.950;2022-12-05T10:40:42;1.53;;;1.20;;
11763;SDS011;5939;56.522;14.950;2022-12-05T10:43:12;1.50;;;1.40;;
11763;SDS011;5939;56.522;14.950;2022-12-05T10:45:41;1.40;;;1.30;;
11763;SDS011;5939;56.522;14.950;2022-12-05T10:48:13;1.40;;;1.30;;
11763;SDS011;5939;56.522;14.950;2022-12-05T10:50:41;1.50;;;1.40;;
11763;SDS011;5939;56.522;14.950;2022-12-05T10:53:12;1.50;;;1.40;;
11763;SDS011;5939;56.522;14.950;2022-12-05T10:55:44;1.47;;;1.37;;
11763;SDS011;5939;56.522;14.950;2022-12-05T10:58:15;1.93;;;1.40;;
11763;SDS011;5939;56.522;14.950;2022-12-05T11:00:48;2.13;;;1.33;;
11763;SDS011;5939;56.522;14.950;2022-12-05T11:03:29;1.50;;;1.20;;
11763;SDS011;5939;56.522;14.950;2022-12-05T11:06:02;2.03;;;1.50;;
11763;SDS011;5939;56.522;14.950;2022-12-05T11:08:44;1.70;;;1.50;;
11763;SDS011;5939;56.522;14.950;2022-12-05T11:11:17;1.80;;;1.70;;
11763;SDS011;5939;56.522;14.950;2022-12-05T11:16:25;1.47;;;1.37;;
11763;SDS011;5939;56.522;14.950;2022-12-05T11:21:45;1.60;;;1.43;;
11763;SDS011;5939;56.522;14.950;2022-12-05T11:24:19;2.00;;;1.60;;
11763;SDS011;5939;56.522;14.950;2022-12-05T11:26:46;1.67;;;1.57;;
11763;SDS011;5939;56.522;14.950;2022-12-05T11:32:01;2.17;;;1.90;;
11763;SDS011;5939;56.522;14.950;2022-12-05T11:34:41;1.97;;;1.70;;
11763;SDS011;5939;56.522;14.950;2022-12-05T11:37:32;2.27;;;1.60;;
11763;SDS011;5939;56.522;14.950;2022-12-05T11:40:14;1.63;;;1.50;;
11763;SDS011;5939;56.522;14.950;2022-12-05T11:51:01;2.10;;;1.87;;
11763;SDS011;5939;56.522;14.950;2022-12-05T11:58:50;2.57;;;2.10;;
11763;SDS011;5939;56.522;14.950;2022-12-05T12:04:46;2.70;;;2.13;;
11763;SDS011;5939;56.522;14.950;2022-12-05T12:12:25;2.37;;;1.80;;
11763;SDS011;5939;56.522;14.950;2022-12-05T12:20:47;2.70;;;2.07;;
11763;SDS011;5939;56.522;14.950;2022-12-05T12:31:51;2.57;;;2.10;;
11763;SDS011;5939;56.522;14.950;2022-12-05T12:40:11;2.87;;;2.33;;
11763;SDS011;5939;56.522;14.950;2022-12-05T12:42:52;3.73;;;2.43;;
11763;SDS011;5939;56.522;14.950;2022-12-05T12:50:53;4.10;;;2.67;;
11763;SDS011;5939;56.522;14.950;2022-12-05T12:56:14;3.33;;;2.67;;
11763;SDS011;5939;56.522;14.950;2022-12-05T12:58:46;3.87;;;3.00;;
11763;SDS011;5939;56.522;14.950;2022-12-05T13:01:42;3.87;;;2.47;;
11763;SDS011;5939;56.522;14.950;2022-12-05T13:04:18;3.50;;;2.53;;
11763;SDS011;5939;56.522;14.950;2022-12-05T13:06:53;3.63;;;2.73;;
11763;SDS011;5939;56.522;14.950;2022-12-05T13:09:32;2.93;;;2.60;;
11763;SDS011;5939;56.522;14.950;2022-12-05T13:12:09;3.83;;;2.93;;
11763;SDS011;5939;56.522;14.950;2022-12-05T13:14:38;3.83;;;2.90;;
11763;SDS011;5939;56.522;14.950;2022-12-05T13:17:13;2.73;;;2.40;;
11763;SDS011;5939;56.522;14.950;2022-12-05T13:19:44;3.77;;;2.77;;
11763;SDS011;5939;56.522;14.950;2022-12-05T13:22:14;3.77;;;2.43;;
11763;SDS011;5939;56.522;14.950;2022-12-05T13:24:42;3.33;;;2.90;;
11763;SDS011;5939;56.522;14.950;2022-12-05T13:27:13;3.27;;;2.70;;
11763;SDS011;5939;56.522;14.950;2022-12-05T13:29:51;4.10;;;2.77;;
11763;SDS011;5939;56.522;14.950;2022-12-05T13:32:24;2.97;;;2.60;;
11763;SDS011;5939;56.522;14.950;2022-12-05T13:34:50;3.10;;;2.57;;
11763;SDS011;5939;56.522;14.950;2022-12-05T13:37:26;3.43;;;2.70;;
11763;SDS011;5939;56.522;14.950;2022-12-05T13:40:28;3.33;;;2.57;;
11763;SDS011;5939;56.522;14.950;2022-12-05T13:43:16;3.20;;;2.90;;
11763;SDS011;5939;56.522;14.950;2022-12-05T13:46:18;3.97;;;2.70;;
11763;SDS011;5939;56.522;14.950;2022-12-05T13:48:43;3.03;;;2.53;;
11763;SDS011;5939;56.522;14.950;2022-12-05T13:51:28;3.53;;;2.57;;
11763;SDS011;5939;56.522;14.950;2022-12-05T13:54:08;3.43;;;2.60;;
11763;SDS011;5939;56.522;14.950;2022-12-05T13:56:53;3.00;;;2.50;;
11763;SDS011;5939;56.522;14.950;2022-12-05T14:07:39;3.53;;;2.70;;
11763;SDS011;5939;56.522;14.950;2022-12-05T14:10:05;2.90;;;2.57;;
11763;SDS011;5939;56.522;14.950;2022-12-05T14:12:55;3.10;;;2.50;;
11763;SDS011;5939;56.522;14.950;2022-12-05T14:15:35;2.97;;;2.43;;
11763;SDS011;5939;56.522;14.950;2022-12-05T14:18:11;5.20;;;2.90;;
11763;SDS011;5939;56.522;14.950;2022-12-05T14:21:02;3.73;;;2.90;;
11763;SDS011;5939;56.522;14.950;2022-12-05T14:31:44;5.20;;;2.57;;
11763;SDS011;5939;56.522;14.950;2022-12-05T14:34:27;3.53;;;2.97;;
11763;SDS011;5939;56.522;14.950;2022-12-05T14:36:59;4.43;;;2.93;;
11763;SDS011;5939;56.522;14.950;2022-12-05T14:39:44;3.47;;;2.33;;
11763;SDS011;5939;56.522;14.950;2022-12-05T14:45:41;3.87;;;2.77;;
11763;SDS011;5939;56.522;14.950;2022-12-05T14:48:04;3.77;;;3.03;;
11763;SDS011;5939;56.522;14.950;2022-12-05T14:50:54;4.00;;;2.70;;
11763;SDS011;5939;56.522;14.950;2022-12-05T14:53:26;3.23;;;2.50;;
11763;SDS011;5939;56.522;14.950;2022-12-05T15:01:52;3.27;;;2.50;;
11763;SDS011;5939;56.522;14.950;2022-12-05T15:05:22;3.40;;;2.70;;
11763;SDS011;5939;56.522;14.950;2022-12-05T15:09:49;4.10;;;2.73;;
11763;SDS011;5939;56.522;14.950;2022-12-05T15:29:13;3.40;;;2.80;;
11763;SDS011;5939;56.522;14.950;2022-12-05T15:31:46;3.80;;;2.77;;
11763;SDS011;5939;56.522;14.950;2022-12-05T15:34:17;3.67;;;2.57;;
11763;SDS011;5939;56.522;14.950;2022-12-05T15:36:44;4.17;;;2.70;;
11763;SDS011;5939;56.522;14.950;2022-12-05T15:39:22;3.37;;;2.70;;
11763;SDS011;5939;56.522;14.950;2022-12-05T15:41:52;3.53;;;2.70;;
11763;SDS011;5939;56.522;14.950;2022-12-05T15:44:20;4.00;;;2.50;;
11763;SDS011;5939;56.522;14.950;2022-12-05T15:46:53;3.53;;;2.93;;
11763;SDS011;5939;56.522;14.950;2022-12-05T15:49:21;3.47;;;2.70;;
11763;SDS011;5939;56.522;14.950;2022-12-05T15:51:52;4.17;;;2.70;;
11763;SDS011;5939;56.522;14.950;2022-12-05T15:54:24;2.90;;;2.60;;
11763;SDS011;5939;56.522;14.950;2022-12-05T15:57:01;4.60;;;2.70;;
11763;SDS011;5939;56.522;14.950;2022-12-05T15:59:44;4.10;;;2.80;;
11763;SDS011;5939;56.522;14.950;2022-12-05T16:02:19;3.17;;;2.37;;
11763;SDS011;5939;56.522;14.950;2022-12-05T16:04:51;3.20;;;2.90;;
11763;SDS011;5939;56.522;14.950;2022-12-05T16:07:20;3.57;;;2.70;;
11763;SDS011;5939;56.522;14.950;2022-12-05T16:09:49;2.77;;;2.50;;
11763;SDS011;5939;56.522;14.950;2022-12-05T16:14:57;3.77;;;2.63;;
11763;SDS011;5939;56.522;14.950;2022-12-05T16:17:28;2.67;;;2.43;;
11763;SDS011;5939;56.522;14.950;2022-12-05T16:20:11;3.50;;;2.70;;
11763;SDS011;5939;56.522;14.950;2022-12-05T16:22:47;3.03;;;2.30;;
11763;SDS011;5939;56.522;14.950;2022-12-05T16:25:21;3.33;;;2.20;;
11763;SDS011;5939;56.522;14.950;2022-12-05T16:27:59;2.57;;;2.20;;
11763;SDS011;5939;56.522;14.950;2022-12-05T16:30:39;2.93;;;2.47;;
11763;SDS011;5939;56.522;14.950;2022-12-05T16:33:14;2.87;;;2.30;;
11763;SDS011;5939;56.522;14.950;2022-12-05T16:35:44;2.87;;;2.00;;
11763;SDS011;5939;56.522;14.950;2022-12-05T16:40:51;3.03;;;2.47;;
11763;SDS011;5939;56.522;14.950;2022-12-05T16:45:54;2.97;;;2.40;;
11763;SDS011;5939;56.522;14.950;2022-12-05T16:50:53;2.70;;;2.37;;
11763;SDS011;5939;56.522;14.950;2022-12-05T16:53:39;2.60;;;2.07;;
11763;SDS011;5939;56.522;14.950;2022-12-05T16:56:06;2.80;;;2.43;;
11763;SDS011;5939;56.522;14.950;2022-12-05T16:58:55;3.37;;;2.20;;
11763;SDS011;5939;56.522;14.950;2022-12-05T17:01:22;2.57;;;2.20;;
11763;SDS011;5939;56.522;14.950;2022-12-05T17:03:50;2.93;;;2.53;;
11763;SDS011;5939;56.522;14.950;2022-12-05T17:06:17;3.10;;;2.63;;
11763;SDS011;5939;56.522;14.950;2022-12-05T17:08:45;3.93;;;2.97;;
11763;SDS011;5939;56.522;14.950;2022-12-05T17:11:13;2.20;;;1.83;;
11763;SDS011;5939;56.522;14.950;2022-12-05T17:13:45;2.80;;;2.33;;
11763;SDS011;5939;56.522;14.950;2022-12-05T17:16:13;2.93;;;2.30;;
11763;SDS011;5939;56.522;14.950;2022-12-05T17:18:40;2.30;;;2.03;;
11763;SDS011;5939;56.522;14.950;2022-12-05T17:21:09;3.00;;;2.33;;
11763;SDS011;5939;56.522;14.950;2022-12-05T17:23:40;2.70;;;2.30;;
11763;SDS011;5939;56.522;14.950;2022-12-05T17:26:07;3.40;;;2.57;;
11763;SDS011;5939;56.522;14.950;2022-12-05T17:28:36;2.67;;;2.27;;
11763;SDS011;5939;56.522;14.950;2022-12-05T17:31:02;2.93;;;2.40;;
11763;SDS011;5939;56.522;14.950;2022-12-05T17:33:28;3.20;;;2.60;;
11763;SDS011;5939;56.522;14.950;2022-12-05T17:35:54;3.80;;;2.73;;
11763;SDS011;5939;56.522;14.950;2022-12-05T17:38:19;2.83;;;2.40;;
11763;SDS011;5939;56.522;14.950;2022-12-05T17:40:46;3.20;;;2.40;;
11763;SDS011;5939;56.522;14.950;2022-12-05T17:43:12;3.80;;;2.53;;
11763;SDS011;5939;56.522;14.950;2022-12-05T17:45:39;2.87;;;2.23;;
11763;SDS011;5939;56.522;14.950;2022-12-05T17:48:05;3.27;;;2.23;;
11763;SDS011;5939;56.522;14.950;2022-12-05T17:50:31;2.27;;;2.07;;
11763;SDS011;5939;56.522;14.950;2022-12-05T17:52:56;3.33;;;2.33;;
11763;SDS011;5939;56.522;14.950;2022-12-05T17:55:23;3.03;;;2.20;;
11763;SDS011;5939;56.522;14.950;2022-12-05T17:57:52;2.77;;;2.40;;
11763;SDS011;5939;56.522;14.950;2022-12-05T18:00:18;2.87;;;2.40;;
11763;SDS011;5939;56.522;14.950;2022-12-05T18:02:45;2.73;;;2.30;;
11763;SDS011;5939;56.522;14.950;2022-12-05T18:05:11;2.60;;;2.30;;